createdAt,value
2018-08-30T00:02:27.056Z,16.50
2018-08-30T00:04:55.295Z,16.40
2018-08-30T00:07:23.519Z,16.40
2018-08-30T00:09:51.795Z,16.20
2018-08-30T00:12:19.998Z,16.20
2018-08-30T00:14:48.235Z,16.10
2018-08-30T00:17:16.441Z,16.00
2018-08-30T00:19:44.695Z,15.90
2018-08-30T00:22:12.933Z,15.90
2018-08-30T00:24:41.168Z,15.80
2018-08-30T00:27:09.371Z,15.80
2018-08-30T00:29:37.616Z,15.70
2018-08-30T00:32:05.886Z,15.80
2018-08-30T00:34:34.095Z,15.80
2018-08-30T00:37:02.329Z,15.90
2018-08-30T00:39:30.533Z,15.80
2018-08-30T00:41:58.814Z,15.80
2018-08-30T00:44:27.103Z,15.80
2018-08-30T00:46:55.343Z,15.70
2018-08-30T00:49:23.562Z,15.70
2018-08-30T00:51:51.791Z,15.70
2018-08-30T00:54:20.045Z,15.60
2018-08-30T00:56:48.272Z,15.50
2018-08-30T00:59:16.483Z,15.40
2018-08-30T01:01:44.717Z,15.40
2018-08-30T01:04:12.927Z,15.30
2018-08-30T01:06:41.154Z,15.20
2018-08-30T01:09:09.388Z,15.20
2018-08-30T01:11:37.622Z,15.10
2018-08-30T01:14:05.845Z,15.10
2018-08-30T01:16:34.516Z,15.00
2018-08-30T01:19:02.893Z,15.00
2018-08-30T01:21:31.115Z,15.10
2018-08-30T01:23:59.330Z,15.10
2018-08-30T01:26:27.570Z,15.10
2018-08-30T01:28:56.622Z,15.10
2018-08-30T01:31:24.889Z,15.20
2018-08-30T01:33:53.148Z,15.20
2018-08-30T01:36:21.376Z,15.20
2018-08-30T01:38:49.587Z,15.20
2018-08-30T01:41:17.861Z,15.20
2018-08-30T01:43:46.084Z,15.20
2018-08-30T01:46:14.751Z,15.30
2018-08-30T01:48:42.974Z,15.10
2018-08-30T01:51:11.226Z,15.10
2018-08-30T01:53:39.455Z,15.20
2018-08-30T01:56:07.687Z,15.10
2018-08-30T01:58:35.972Z,15.00
2018-08-30T02:01:04.230Z,15.00
2018-08-30T02:03:32.453Z,15.00
2018-08-30T02:06:00.696Z,15.00
2018-08-30T02:08:28.993Z,14.90
2018-08-30T02:10:57.239Z,14.90
2018-08-30T02:13:25.463Z,14.80
2018-08-30T02:15:53.707Z,14.80
2018-08-30T02:18:21.944Z,14.70
2018-08-30T02:20:50.431Z,14.70
2018-08-30T02:23:18.664Z,14.70
2018-08-30T02:25:47.543Z,14.70
2018-08-30T02:28:15.783Z,14.60
2018-08-30T02:30:43.986Z,14.80
2018-08-30T02:33:12.269Z,14.70
2018-08-30T02:35:40.530Z,14.70
2018-08-30T02:38:08.767Z,14.70
2018-08-30T02:40:36.982Z,14.60
2018-08-30T02:43:05.999Z,14.60
2018-08-30T02:45:34.571Z,14.60
2018-08-30T02:48:02.812Z,14.50
2018-08-30T02:50:31.142Z,14.50
2018-08-30T02:52:59.752Z,14.50
2018-08-30T02:55:27.994Z,14.40
2018-08-30T02:57:56.238Z,14.40
2018-08-30T03:00:24.491Z,14.40
2018-08-30T03:02:52.778Z,14.30
2018-08-30T03:05:21.003Z,14.30
2018-08-30T03:07:49.264Z,14.30
2018-08-30T03:10:17.495Z,14.30
2018-08-30T03:12:45.739Z,14.20
2018-08-30T03:15:14.931Z,14.20
2018-08-30T03:17:43.947Z,14.20
2018-08-30T03:20:13.445Z,14.10
2018-08-30T03:22:42.280Z,14.20
2018-08-30T03:25:10.547Z,14.20
2018-08-30T03:27:39.759Z,14.20
2018-08-30T03:30:08.467Z,14.20
2018-08-30T03:32:36.765Z,14.10
2018-08-30T03:35:05.067Z,14.20
2018-08-30T03:37:33.303Z,14.20
2018-08-30T03:40:01.750Z,14.20
2018-08-30T03:42:29.983Z,14.10
2018-08-30T03:44:58.217Z,14.10
2018-08-30T03:47:26.453Z,14.00
2018-08-30T03:49:54.696Z,14.00
2018-08-30T03:52:22.939Z,13.90
2018-08-30T03:54:51.189Z,13.90
2018-08-30T03:57:19.415Z,13.80
2018-08-30T03:59:47.746Z,13.90
2018-08-30T04:02:16.028Z,14.00
2018-08-30T04:04:44.244Z,14.00
2018-08-30T04:07:12.518Z,14.10
2018-08-30T04:09:40.795Z,14.20
2018-08-30T04:12:09.105Z,14.20
2018-08-30T04:14:37.319Z,14.20
2018-08-30T04:17:05.571Z,14.30
2018-08-30T04:19:33.834Z,14.30
2018-08-30T04:22:02.115Z,14.40
2018-08-30T04:24:30.763Z,14.50
2018-08-30T04:26:59.081Z,14.60
2018-08-30T04:29:27.297Z,14.60
2018-08-30T04:31:55.532Z,14.80
2018-08-30T04:34:23.756Z,15.00
2018-08-30T04:36:52.047Z,15.00
2018-08-30T04:39:20.277Z,15.00
2018-08-30T04:41:48.507Z,15.10
2018-08-30T04:44:16.751Z,15.30
2018-08-30T04:46:45.021Z,15.40
2018-08-30T04:49:13.309Z,15.50
2018-08-30T04:51:41.550Z,15.50
2018-08-30T04:54:10.465Z,15.70
2018-08-30T04:56:38.713Z,15.70
2018-08-30T04:59:06.975Z,15.80
2018-08-30T05:01:35.259Z,15.80
2018-08-30T05:04:03.539Z,16.00
2018-08-30T05:06:31.780Z,16.00
2018-08-30T05:09:00.067Z,16.00
2018-08-30T05:11:28.302Z,16.00
2018-08-30T05:13:56.630Z,16.00
2018-08-30T05:16:24.951Z,16.00
2018-08-30T05:18:53.243Z,16.00
2018-08-30T05:21:21.454Z,16.00
2018-08-30T05:23:49.686Z,16.00
2018-08-30T05:26:17.991Z,16.00
2018-08-30T05:28:46.213Z,16.10
2018-08-30T05:31:14.440Z,16.20
2018-08-30T05:33:42.722Z,16.20
2018-08-30T05:36:10.978Z,16.30
2018-08-30T05:38:39.233Z,16.30
2018-08-30T05:41:07.509Z,16.40
2018-08-30T05:43:35.932Z,16.40
2018-08-30T05:46:04.156Z,16.60
2018-08-30T05:48:32.421Z,16.80
2018-08-30T05:51:00.636Z,17.00
2018-08-30T05:53:28.875Z,17.20
2018-08-30T05:55:57.088Z,17.40
2018-08-30T05:58:25.329Z,17.60
2018-08-30T06:00:53.558Z,17.80
2018-08-30T06:03:21.787Z,17.90
2018-08-30T06:05:50.108Z,17.90
2018-08-30T06:08:18.472Z,17.90
2018-08-30T06:10:46.685Z,17.90
2018-08-30T06:13:14.908Z,18.00
2018-08-30T06:15:43.145Z,18.00
2018-08-30T06:18:11.820Z,18.10
2018-08-30T06:20:40.064Z,18.10
2018-08-30T06:23:08.302Z,18.20
2018-08-30T06:25:36.519Z,18.30
2018-08-30T06:28:04.804Z,18.40
2018-08-30T06:30:33.051Z,18.50
2018-08-30T06:33:01.263Z,18.60
2018-08-30T06:35:29.504Z,18.60
2018-08-30T06:37:57.760Z,18.70
2018-08-30T06:40:26.001Z,18.60
2018-08-30T06:42:54.208Z,18.70
2018-08-30T06:45:22.522Z,18.70
2018-08-30T06:47:50.737Z,18.70
2018-08-30T06:50:18.983Z,18.80
2018-08-30T06:52:47.199Z,18.80
2018-08-30T06:55:15.460Z,18.90
2018-08-30T06:57:43.690Z,19.00
2018-08-30T07:00:11.899Z,19.20
2018-08-30T07:02:40.118Z,19.40
2018-08-30T07:05:08.355Z,19.50
2018-08-30T07:07:36.578Z,19.60
2018-08-30T07:10:05.338Z,19.80
2018-08-30T07:12:33.592Z,19.90
2018-08-30T07:15:02.128Z,20.00
2018-08-30T07:17:30.416Z,20.10
2018-08-30T07:19:58.706Z,20.20
2018-08-30T07:22:26.898Z,20.30
2018-08-30T07:24:57.756Z,20.40
2018-08-30T07:27:26.236Z,20.50
2018-08-30T07:29:54.482Z,20.60
2018-08-30T07:32:22.752Z,20.70
2018-08-30T07:34:51.076Z,20.60
2018-08-30T07:37:19.240Z,20.50
2018-08-30T07:39:47.474Z,20.50
2018-08-30T07:42:15.720Z,20.40
2018-08-30T07:44:43.939Z,20.40
2018-08-30T07:47:12.180Z,20.30
2018-08-30T07:49:40.384Z,20.30
2018-08-30T07:52:08.612Z,20.20
2018-08-30T07:54:37.121Z,20.10
2018-08-30T07:57:05.556Z,20.00
2018-08-30T07:59:33.820Z,20.00
2018-08-30T08:02:02.151Z,19.80
2018-08-30T08:04:30.413Z,19.80
2018-08-30T08:06:58.723Z,19.80
2018-08-30T08:09:26.955Z,19.80
2018-08-30T08:11:55.312Z,19.80
2018-08-30T08:14:23.539Z,19.80
2018-08-30T08:16:52.153Z,19.80
2018-08-30T08:19:20.516Z,19.80
2018-08-30T08:21:48.827Z,19.70
2018-08-30T08:24:17.249Z,19.60
2018-08-30T08:26:45.527Z,19.60
2018-08-30T08:29:13.796Z,19.60
2018-08-30T08:31:42.049Z,19.60
2018-08-30T08:34:10.318Z,19.50
2018-08-30T08:36:38.740Z,19.50
2018-08-30T08:39:06.983Z,19.50
2018-08-30T08:41:35.340Z,19.50
2018-08-30T08:44:04.266Z,19.50
2018-08-30T08:46:33.133Z,19.40
2018-08-30T08:49:01.375Z,19.30
2018-08-30T08:51:29.624Z,19.30
2018-08-30T08:53:57.841Z,19.20
2018-08-30T08:56:26.092Z,19.20
2018-08-30T08:58:54.453Z,19.20
2018-08-30T09:01:22.715Z,19.30
2018-08-30T09:03:50.951Z,19.40
2018-08-30T09:06:19.183Z,19.40
2018-08-30T09:08:47.403Z,19.40
2018-08-30T09:11:15.708Z,19.40
2018-08-30T09:13:43.938Z,19.40
2018-08-30T09:16:12.176Z,19.30
2018-08-30T09:18:40.472Z,19.20
2018-08-30T09:21:08.712Z,19.20
2018-08-30T09:23:36.952Z,19.20
2018-08-30T09:26:05.413Z,19.30
2018-08-30T09:28:33.706Z,19.30
2018-08-30T09:31:01.997Z,19.30
2018-08-30T09:33:30.203Z,19.30
2018-08-30T09:35:58.418Z,19.40
2018-08-30T09:38:26.631Z,19.40
2018-08-30T09:40:54.931Z,19.40
2018-08-30T09:43:23.176Z,19.40
2018-08-30T09:45:51.458Z,19.50
2018-08-30T09:48:19.672Z,19.50
2018-08-30T09:50:48.050Z,19.50
2018-08-30T09:53:16.299Z,19.50
2018-08-30T09:55:44.655Z,19.60
2018-08-30T09:58:12.883Z,19.80
2018-08-30T10:00:46.478Z,19.90
2018-08-30T10:03:14.746Z,20.10
2018-08-30T10:05:43.001Z,20.30
2018-08-30T10:08:11.272Z,20.40
2018-08-30T10:10:39.475Z,20.50
2018-08-30T10:13:07.724Z,20.40
2018-08-30T10:15:36.117Z,20.20
2018-08-30T10:18:04.425Z,20.10
2018-08-30T10:20:32.647Z,20.00
2018-08-30T10:23:00.859Z,19.90
2018-08-30T10:25:29.182Z,20.00
2018-08-30T10:27:57.357Z,20.20
2018-08-30T10:30:25.647Z,20.20
2018-08-30T10:32:53.872Z,20.20
2018-08-30T10:35:22.105Z,20.20
2018-08-30T10:37:50.358Z,20.10
2018-08-30T10:40:18.635Z,20.00
2018-08-30T10:42:46.871Z,19.90
2018-08-30T10:45:15.082Z,19.90
2018-08-30T10:47:43.315Z,19.90
2018-08-30T10:50:11.553Z,20.00
2018-08-30T10:52:40.488Z,20.00
2018-08-30T10:55:08.751Z,20.00
2018-08-30T10:57:37.027Z,19.90
2018-08-30T11:00:06.220Z,19.80
2018-08-30T11:02:34.491Z,19.70
2018-08-30T11:05:02.713Z,19.70
2018-08-30T11:07:30.930Z,19.80
2018-08-30T11:09:59.190Z,19.80
2018-08-30T11:12:27.440Z,19.90
2018-08-30T11:14:55.651Z,19.90
2018-08-30T11:17:24.286Z,19.80
2018-08-30T11:19:52.516Z,19.80
2018-08-30T11:22:20.740Z,19.70
2018-08-30T11:24:48.953Z,19.70
2018-08-30T11:27:17.321Z,19.70
2018-08-30T11:29:45.555Z,19.70
2018-08-30T11:32:13.790Z,19.80
2018-08-30T11:34:42.024Z,19.80
2018-08-30T11:37:10.389Z,19.90
2018-08-30T11:39:38.624Z,20.00
2018-08-30T11:42:06.863Z,20.20
2018-08-30T11:44:35.086Z,20.90
2018-08-30T11:47:03.326Z,21.70
2018-08-30T11:49:31.564Z,22.10
2018-08-30T11:51:59.859Z,21.90
2018-08-30T11:54:28.212Z,21.70
2018-08-30T11:56:56.457Z,21.40
2018-08-30T11:59:24.724Z,21.20
2018-08-30T12:01:53.135Z,21.00
2018-08-30T12:04:21.557Z,20.80
2018-08-30T12:06:49.792Z,20.60
2018-08-30T12:09:18.056Z,20.40
2018-08-30T12:11:46.272Z,20.10
2018-08-30T12:14:14.524Z,19.90
2018-08-30T12:16:42.764Z,19.70
2018-08-30T12:19:11.045Z,19.50
2018-08-30T12:21:39.276Z,19.40
2018-08-30T12:24:07.557Z,19.30
2018-08-30T12:26:35.769Z,19.20
2018-08-30T12:29:04.054Z,19.10
2018-08-30T12:31:32.326Z,19.00
2018-08-30T12:34:00.648Z,19.00
2018-08-30T12:36:28.955Z,19.10
2018-08-30T12:38:57.306Z,19.20
2018-08-30T12:41:25.613Z,19.50
2018-08-30T12:43:54.074Z,19.80
2018-08-30T12:46:22.301Z,20.20
2018-08-30T12:48:50.848Z,20.80
2018-08-30T12:51:19.224Z,21.30
2018-08-30T12:53:47.518Z,21.30
2018-08-30T12:56:15.787Z,21.20
2018-08-30T12:58:44.138Z,21.00
2018-08-30T13:01:12.522Z,20.80
2018-08-30T13:03:40.746Z,20.60
2018-08-30T13:06:09.297Z,20.50
2018-08-30T13:08:37.567Z,20.20
2018-08-30T13:11:06.133Z,20.10
2018-08-30T13:13:34.294Z,20.10
2018-08-30T13:16:02.744Z,20.00
2018-08-30T13:18:31.188Z,19.90
2018-08-30T13:20:59.445Z,19.70
2018-08-30T13:23:27.776Z,19.70
2018-08-30T13:25:55.954Z,19.70
2018-08-30T13:28:24.420Z,19.80
2018-08-30T13:30:52.701Z,19.80
2018-08-30T13:33:21.186Z,19.80
2018-08-30T13:35:49.362Z,19.70
2018-08-30T13:38:17.876Z,19.70
2018-08-30T13:40:46.025Z,19.60
2018-08-30T13:43:14.273Z,19.60
2018-08-30T13:45:42.470Z,19.70
2018-08-30T13:48:10.791Z,19.80
2018-08-30T13:50:39.011Z,19.90
2018-08-30T13:53:07.336Z,19.90
2018-08-30T13:55:35.804Z,19.90
2018-08-30T13:58:04.077Z,19.80
2018-08-30T14:00:32.452Z,19.80
2018-08-30T14:03:00.495Z,19.80
2018-08-30T14:05:28.792Z,19.90
2018-08-30T14:07:56.933Z,20.10
2018-08-30T14:10:25.230Z,20.20
2018-08-30T14:12:53.493Z,20.30
2018-08-30T14:15:21.924Z,20.20
2018-08-30T14:17:49.822Z,20.20
2018-08-30T14:20:18.122Z,20.10
2018-08-30T14:22:46.415Z,20.10
2018-08-30T14:25:14.584Z,20.20
2018-08-30T14:27:42.815Z,20.30
2018-08-30T14:30:11.369Z,20.40
2018-08-30T14:32:39.699Z,20.50
2018-08-30T14:35:07.853Z,20.80
2018-08-30T14:37:36.138Z,21.00
2018-08-30T14:40:04.427Z,21.20
2018-08-30T14:42:32.660Z,21.30
2018-08-30T14:45:01.193Z,21.30
2018-08-30T14:47:29.494Z,21.50
2018-08-30T14:49:57.764Z,21.60
2018-08-30T14:52:26.015Z,21.50
2018-08-30T14:54:54.193Z,21.50
2018-08-30T14:57:22.449Z,21.40
2018-08-30T14:59:50.707Z,21.30
2018-08-30T15:02:18.956Z,21.10
2018-08-30T15:04:47.191Z,20.80
2018-08-30T15:07:15.427Z,20.70
2018-08-30T15:09:43.761Z,20.50
2018-08-30T15:12:11.975Z,20.40
2018-08-30T15:14:40.209Z,20.30
2018-08-30T15:17:08.737Z,20.20
2018-08-30T15:19:36.980Z,20.20
2018-08-30T15:22:05.243Z,20.20
2018-08-30T15:24:33.787Z,20.20
2018-08-30T15:27:02.217Z,20.30
2018-08-30T15:29:30.538Z,20.40
2018-08-30T15:31:59.172Z,20.50
2018-08-30T15:34:27.534Z,20.70
2018-08-30T15:36:55.702Z,20.90
2018-08-30T15:39:24.115Z,21.00
2018-08-30T15:41:52.452Z,21.10
2018-08-30T15:44:20.703Z,21.20
2018-08-30T15:46:48.971Z,21.20
2018-08-30T15:49:17.404Z,21.20
2018-08-30T15:51:45.677Z,21.30
2018-08-30T15:54:14.015Z,21.40
2018-08-30T15:56:42.243Z,21.50
2018-08-30T15:59:10.536Z,21.70
2018-08-30T16:01:38.794Z,21.90
2018-08-30T16:04:07.026Z,22.10
2018-08-30T16:06:35.355Z,22.00
2018-08-30T16:09:04.551Z,21.90
2018-08-30T16:11:32.797Z,21.70
2018-08-30T16:14:01.108Z,21.60
2018-08-30T16:16:29.350Z,21.60
2018-08-30T16:18:57.644Z,21.60
2018-08-30T16:21:25.879Z,21.40
2018-08-30T16:23:54.144Z,21.30
2018-08-30T16:26:22.389Z,21.10
2018-08-30T16:28:50.620Z,20.90
2018-08-30T16:31:19.026Z,20.80
2018-08-30T16:33:47.090Z,20.70
2018-08-30T16:36:15.433Z,20.50
2018-08-30T16:38:43.669Z,20.40
2018-08-30T16:41:11.933Z,20.30
2018-08-30T16:43:40.162Z,20.20
2018-08-30T16:46:08.416Z,20.20
2018-08-30T16:48:36.642Z,20.10
2018-08-30T16:51:05.072Z,20.10
2018-08-30T16:53:33.303Z,20.00
2018-08-30T16:56:01.615Z,20.00
2018-08-30T16:58:29.777Z,19.90
2018-08-30T17:00:58.155Z,19.90
2018-08-30T17:03:26.419Z,19.80
2018-08-30T17:05:54.675Z,19.70
2018-08-30T17:08:22.925Z,19.60
2018-08-30T17:10:51.175Z,19.60
2018-08-30T17:13:19.456Z,19.50
2018-08-30T17:15:47.718Z,19.40
2018-08-30T17:18:15.966Z,19.30
2018-08-30T17:20:47.558Z,19.20
2018-08-30T17:23:15.809Z,19.20
2018-08-30T17:25:45.208Z,19.10
2018-08-30T17:28:13.616Z,18.90
2018-08-30T17:30:42.064Z,18.80
2018-08-30T17:33:10.777Z,18.60
2018-08-30T17:35:39.022Z,18.50
2018-08-30T17:38:07.257Z,18.40
2018-08-30T17:40:35.535Z,18.40
2018-08-30T17:43:03.787Z,18.30
2018-08-30T17:45:32.162Z,18.20
2018-08-30T17:48:00.449Z,18.10
2018-08-30T17:50:28.790Z,18.00
2018-08-30T17:52:56.854Z,17.90
2018-08-30T17:55:25.185Z,17.70
2018-08-30T17:57:53.358Z,17.70
2018-08-30T18:00:21.566Z,17.60
2018-08-30T18:02:49.900Z,17.60
2018-08-30T18:05:18.087Z,17.50
2018-08-30T18:07:46.332Z,17.50
2018-08-30T18:10:14.570Z,17.40
2018-08-30T18:12:42.811Z,17.30
2018-08-30T18:15:12.779Z,17.30
2018-08-30T18:17:41.028Z,17.30
2018-08-30T18:20:09.276Z,17.30
2018-08-30T18:22:37.500Z,17.20
2018-08-30T18:25:05.850Z,17.10
2018-08-30T18:27:34.929Z,17.20
2018-08-30T18:30:03.161Z,17.10
2018-08-30T18:32:31.396Z,17.10
2018-08-30T18:34:59.682Z,17.10
2018-08-30T18:37:27.914Z,17.00
2018-08-30T18:39:56.484Z,17.10
2018-08-30T18:42:24.826Z,17.00
2018-08-30T18:44:53.029Z,17.00
2018-08-30T18:47:21.297Z,17.10
2018-08-30T18:49:49.533Z,17.10
2018-08-30T18:52:17.771Z,17.00
2018-08-30T18:54:45.982Z,17.00
2018-08-30T18:57:14.261Z,17.00
2018-08-30T18:59:42.498Z,17.00
2018-08-30T19:02:10.740Z,17.00
2018-08-30T19:04:38.966Z,17.00
2018-08-30T19:07:07.219Z,17.00
2018-08-30T19:09:35.465Z,17.00
2018-08-30T19:12:03.707Z,16.90
2018-08-30T19:14:31.948Z,16.90
2018-08-30T19:17:05.553Z,16.90
2018-08-30T19:19:35.703Z,16.90
2018-08-30T19:22:03.950Z,16.90
2018-08-30T19:24:37.506Z,16.90
2018-08-30T19:27:05.795Z,16.90
2018-08-30T19:29:39.595Z,16.90
2018-08-30T19:32:07.843Z,16.90
2018-08-30T19:34:36.063Z,16.90
2018-08-30T19:37:04.430Z,16.90
2018-08-30T19:39:32.666Z,16.90
2018-08-30T19:42:00.906Z,16.90
2018-08-30T19:44:29.125Z,16.90
2018-08-30T19:46:58.155Z,16.90
2018-08-30T19:49:26.389Z,16.90
2018-08-30T19:51:54.616Z,16.90
2018-08-30T19:54:22.849Z,16.90
2018-08-30T19:56:51.081Z,16.90
2018-08-30T19:59:19.330Z,16.90
2018-08-30T20:01:47.548Z,16.80
2018-08-30T20:04:15.966Z,16.80
2018-08-30T20:06:44.204Z,16.80
2018-08-30T20:09:12.456Z,16.80
2018-08-30T20:11:40.695Z,16.80
2018-08-30T20:14:08.938Z,16.80
2018-08-30T20:16:37.587Z,16.70
2018-08-30T20:19:05.847Z,16.70
2018-08-30T20:21:34.096Z,16.70
2018-08-30T20:24:02.326Z,16.70
2018-08-30T20:26:30.607Z,16.70
2018-08-30T20:28:58.855Z,16.70
2018-08-30T20:31:27.138Z,16.70
2018-08-30T20:33:55.379Z,16.70
2018-08-30T20:36:23.621Z,16.70
2018-08-30T20:38:51.940Z,16.70
2018-08-30T20:41:20.428Z,16.70
2018-08-30T20:43:48.660Z,16.70
2018-08-30T20:46:17.017Z,16.70
2018-08-30T20:48:45.227Z,16.70
2018-08-30T20:51:13.439Z,16.70
2018-08-30T20:53:41.672Z,16.70
2018-08-30T20:56:10.059Z,16.70
2018-08-30T20:58:38.340Z,16.70
2018-08-30T21:01:06.554Z,16.70
2018-08-30T21:03:34.814Z,16.60
2018-08-30T21:06:03.016Z,16.70
2018-08-30T21:08:31.303Z,16.60
2018-08-30T21:10:59.552Z,16.60
2018-08-30T21:13:27.852Z,16.60
2018-08-30T21:15:56.167Z,16.60
2018-08-30T21:18:24.433Z,16.60
2018-08-30T21:20:52.670Z,16.60
2018-08-30T21:23:20.984Z,16.50
2018-08-30T21:25:49.267Z,16.50
2018-08-30T21:28:17.690Z,16.40
2018-08-30T21:30:45.992Z,16.40
2018-08-30T21:33:14.233Z,16.40
2018-08-30T21:35:42.480Z,16.40
2018-08-30T21:38:10.700Z,16.40
2018-08-30T21:40:38.937Z,16.30
2018-08-30T21:43:07.148Z,16.40
2018-08-30T21:45:35.368Z,16.40
2018-08-30T21:48:03.646Z,16.30
2018-08-30T21:50:32.017Z,16.30
2018-08-30T21:53:00.239Z,16.30
2018-08-30T21:55:28.483Z,16.20
2018-08-30T21:57:56.760Z,16.30
2018-08-30T22:00:25.613Z,16.30
2018-08-30T22:02:53.890Z,16.20
2018-08-30T22:05:22.062Z,16.20
2018-08-30T22:07:50.269Z,16.20
2018-08-30T22:10:18.544Z,16.20
2018-08-30T22:12:46.750Z,16.20
2018-08-30T22:15:14.993Z,16.10
2018-08-30T22:17:43.232Z,16.10
2018-08-30T22:20:11.495Z,16.10
2018-08-30T22:22:39.717Z,16.10
2018-08-30T22:25:08.173Z,16.00
2018-08-30T22:27:36.479Z,16.00
2018-08-30T22:30:07.203Z,16.00
2018-08-30T22:32:35.427Z,15.90
2018-08-30T22:35:03.673Z,15.90
2018-08-30T22:37:31.890Z,16.00
2018-08-30T22:40:00.190Z,15.90
2018-08-30T22:42:28.403Z,15.90
2018-08-30T22:44:56.619Z,16.00
2018-08-30T22:47:24.867Z,15.90
2018-08-30T22:49:53.094Z,15.90
2018-08-30T22:52:21.316Z,15.80
2018-08-30T22:54:49.565Z,15.80
2018-08-30T22:57:17.781Z,15.70
2018-08-30T22:59:45.987Z,15.60
2018-08-30T23:02:14.201Z,15.60
2018-08-30T23:04:42.464Z,15.60
2018-08-30T23:07:10.663Z,15.50
2018-08-30T23:09:38.865Z,15.40
2018-08-30T23:12:07.317Z,15.30
2018-08-30T23:14:35.636Z,15.20
2018-08-30T23:17:04.235Z,15.10
2018-08-30T23:19:32.560Z,15.00
2018-08-30T23:22:00.774Z,14.90
2018-08-30T23:24:29.003Z,14.90
2018-08-30T23:26:57.259Z,14.80
2018-08-30T23:29:25.489Z,14.80
2018-08-30T23:31:53.731Z,14.70
2018-08-30T23:34:21.952Z,14.70
2018-08-30T23:36:50.188Z,14.70
2018-08-30T23:39:18.403Z,14.70
2018-08-30T23:41:46.616Z,14.60
2018-08-30T23:44:14.831Z,14.60
2018-08-30T23:46:43.082Z,14.60
2018-08-30T23:49:11.291Z,14.60
2018-08-30T23:51:39.519Z,14.60
2018-08-30T23:54:07.845Z,14.70
2018-08-30T23:56:36.103Z,14.70
2018-08-30T23:59:15.577Z,14.70
